Time;durP1;ratioP1;P1;durP2;ratioP2;P2;SDS_P1;SDS_P2;PMS_P1;PMS_P2;Temp;Humidity;BMP_temperature;BMP_pressure;BME280_temperature;BME280_humidity;BME280_pressure;Samples;Min_cycle;Max_cycle;Signal;HPM_P1;HPM_P2
2021/12/14 00:01:13;;;;;;;11.52;4.40;;;3.90;99.90;;;;;;5035995;28;20033;-72
2021/12/14 00:03:42;;;;;;;9.95;3.63;;;3.90;99.90;;;;;;5007700;28;20030;-70
2021/12/14 00:06:09;;;;;;;9.50;4.03;;;3.90;99.90;;;;;;5012342;28;20044;-68
2021/12/14 00:08:36;;;;;;;11.32;4.45;;;3.90;99.90;;;;;;5008084;28;20129;-68
2021/12/14 00:13:47;;;;;;;14.10;5.53;;;3.80;99.90;;;;;;5011066;28;20038;-68
2021/12/14 00:16:14;;;;;;;12.90;5.22;;;3.70;99.90;;;;;;5009408;28;20588;-68
2021/12/14 00:18:41;;;;;;;13.07;5.10;;;3.70;99.90;;;;;;5009806;28;20386;-70
2021/12/14 00:21:20;;;;;;;12.80;4.40;;;3.70;99.90;;;;;;5011004;28;20022;-73
2021/12/14 00:24:09;;;;;;;14.18;5.15;;;3.70;99.90;;;;;;5009917;28;20164;-69
2021/12/14 00:26:58;;;;;;;11.85;4.55;;;3.70;99.90;;;;;;5009598;28;20127;-68
2021/12/14 00:29:47;;;;;;;11.35;4.18;;;3.70;99.90;;;;;;5010719;28;20046;-75
2021/12/14 00:32:20;;;;;;;11.60;4.38;;;3.70;99.90;;;;;;5009651;28;20038;-66
2021/12/14 00:34:51;;;;;;;14.48;5.05;;;3.70;99.90;;;;;;5009763;28;20640;-68
2021/12/14 00:37:28;;;;;;;15.57;5.63;;;3.70;99.90;;;;;;5008750;28;20026;-69
2021/12/14 00:39:55;;;;;;;16.30;5.30;;;3.60;99.90;;;;;;5009888;28;20034;-69
2021/12/14 00:42:21;;;;;;;18.08;5.90;;;3.60;99.90;;;;;;5010674;28;20037;-68
2021/12/14 00:44:48;;;;;;;12.75;4.80;;;3.50;99.90;;;;;;5009584;28;20026;-68
2021/12/14 00:47:14;;;;;;;37.97;6.93;;;3.50;99.90;;;;;;5010642;28;20087;-70
2021/12/14 00:49:40;;;;;;;39.65;7.28;;;3.50;99.90;;;;;;5009623;28;20429;-67
2021/12/14 00:52:07;;;;;;;33.40;6.63;;;3.40;99.90;;;;;;5009426;28;20069;-68
2021/12/14 00:54:33;;;;;;;48.92;5.90;;;3.30;99.90;;;;;;5009407;28;20026;-66
2021/12/14 00:56:59;;;;;;;74.38;10.63;;;3.30;99.90;;;;;;5010162;28;20033;-70
2021/12/14 00:59:25;;;;;;;189.60;12.95;;;3.30;99.90;;;;;;5010163;28;20466;-67
2021/12/14 01:01:53;;;;;;;50.65;6.97;;;3.30;99.90;;;;;;5010014;28;20030;-68
2021/12/14 01:04:31;;;;;;;62.50;7.85;;;3.20;99.90;;;;;;5009895;28;20106;-69
2021/12/14 01:06:58;;;;;;;49.70;6.28;;;3.20;99.90;;;;;;5009313;28;20375;-68
2021/12/14 01:09:28;;;;;;;93.13;7.07;;;3.20;99.90;;;;;;5010048;28;20597;-68
2021/12/14 01:12:00;;;;;;;169.38;11.70;;;3.20;99.90;;;;;;5009322;28;20058;-68
2021/12/14 01:14:50;;;;;;;85.30;7.68;;;3.20;99.90;;;;;;5010131;28;20029;-70
2021/12/14 01:17:28;;;;;;;86.60;6.85;;;3.20;99.90;;;;;;5009701;28;20033;-70
2021/12/14 01:19:59;;;;;;;60.97;6.35;;;3.10;99.90;;;;;;5006591;28;20046;-67
2021/12/14 01:22:44;;;;;;;17.80;6.03;;;3.10;99.90;;;;;;5008363;28;20034;-68
2021/12/14 01:25:31;;;;;;;86.53;6.22;;;3.10;99.90;;;;;;5003936;28;20792;-68
2021/12/14 01:28:04;;;;;;;30.42;5.55;;;3.10;99.90;;;;;;4997433;28;20380;-67
2021/12/14 01:30:43;;;;;;;15.52;5.18;;;3.00;99.90;;;;;;5009942;28;20060;-75
2021/12/14 01:33:13;;;;;;;16.17;5.47;;;3.10;99.90;;;;;;5008958;28;20123;-70
2021/12/14 01:35:42;;;;;;;17.92;6.25;;;3.10;99.90;;;;;;5007756;28;20099;-69
2021/12/14 01:40:56;;;;;;;46.58;6.15;;;3.30;99.90;;;;;;5008793;28;20064;-68
2021/12/14 01:43:55;;;;;;;185.65;10.45;;;3.30;99.90;;;;;;5010245;28;20040;-67
2021/12/14 01:46:33;;;;;;;66.82;5.80;;;3.30;99.90;;;;;;5009695;28;20088;-68
2021/12/14 01:49:05;;;;;;;66.75;6.97;;;3.20;99.90;;;;;;5009567;28;20030;-68
2021/12/14 01:51:31;;;;;;;96.03;7.03;;;3.20;99.90;;;;;;5001647;28;20030;-75
2021/12/14 01:53:57;;;;;;;74.40;6.63;;;3.20;99.90;;;;;;5009226;28;20093;-67
2021/12/14 01:56:27;;;;;;;78.35;7.47;;;3.20;99.90;;;;;;5008369;28;20037;-69
2021/12/14 01:59:06;;;;;;;69.72;6.57;;;3.30;99.90;;;;;;5007690;28;20620;-67
2021/12/14 02:01:47;;;;;;;122.18;7.07;;;3.30;99.90;;;;;;5036962;28;20070;-74
2021/12/14 02:04:20;;;;;;;15.82;5.03;;;3.30;99.90;;;;;;5007301;28;20088;-67
2021/12/14 02:06:56;;;;;;;39.92;6.00;;;3.40;99.90;;;;;;5007305;28;20065;-71
2021/12/14 02:09:26;;;;;;;230.43;10.25;;;3.40;99.90;;;;;;5008641;28;20057;-71
2021/12/14 02:11:54;;;;;;;208.30;11.60;;;3.40;99.90;;;;;;5005567;28;20303;-66
2021/12/14 02:14:21;;;;;;;211.35;9.50;;;3.40;99.90;;;;;;5005670;28;20065;-68
2021/12/14 02:17:02;;;;;;;37.10;6.30;;;3.30;99.90;;;;;;5007857;28;20029;-68
2021/12/14 02:19:29;;;;;;;19.25;6.18;;;3.30;99.90;;;;;;5008968;28;20108;-67
2021/12/14 02:21:57;;;;;;;25.00;6.55;;;3.30;99.90;;;;;;5007471;28;20038;-67
2021/12/14 02:24:27;;;;;;;109.15;7.85;;;3.30;99.90;;;;;;5008188;28;20030;-70
2021/12/14 02:26:53;;;;;;;48.22;6.82;;;3.40;99.90;;;;;;5008804;28;20038;-66
2021/12/14 02:29:37;;;;;;;18.85;6.70;;;3.40;99.90;;;;;;5008435;28;20070;-69
2021/12/14 02:32:09;;;;;;;23.25;6.18;;;3.40;99.90;;;;;;5008281;28;20038;-67
2021/12/14 02:34:45;;;;;;;99.50;7.45;;;3.40;99.90;;;;;;5008366;28;20038;-74
2021/12/14 02:37:11;;;;;;;89.45;7.18;;;3.50;99.90;;;;;;5007314;28;20084;-68
2021/12/14 02:42:10;;;;;;;128.25;9.23;;;3.40;99.90;;;;;;5008051;28;20045;-69
2021/12/14 02:44:37;;;;;;;95.30;8.25;;;3.40;99.90;;;;;;5007644;28;20739;-75
2021/12/14 02:47:11;;;;;;;147.80;9.05;;;3.40;99.90;;;;;;5009192;28;20033;-67
2021/12/14 02:49:40;;;;;;;326.52;15.00;;;3.40;99.90;;;;;;5000704;28;20111;-74
2021/12/14 02:52:11;;;;;;;134.90;9.65;;;3.40;99.90;;;;;;5006983;28;20040;-69
2021/12/14 02:54:44;;;;;;;295.95;14.25;;;3.30;99.90;;;;;;5006574;28;20034;-73
2021/12/14 02:57:15;;;;;;;310.15;14.75;;;3.20;99.90;;;;;;5008445;28;20057;-67
2021/12/14 02:59:41;;;;;;;;;;;3.20;99.90;;;;;;5008536;28;20125;-68
2021/12/14 03:02:14;;;;;;;163.93;10.98;;;3.00;99.90;;;;;;5006959;28;19973;-71
2021/12/14 03:04:45;;;;;;;555.25;24.10;;;3.00;99.90;;;;;;5006359;28;20030;-66
2021/12/14 03:07:12;;;;;;;255.95;14.43;;;3.00;99.90;;;;;;5006755;28;20034;-67
2021/12/14 03:12:20;;;;;;;124.60;10.13;;;3.00;99.90;;;;;;5006564;28;20394;-69
2021/12/14 03:14:58;;;;;;;283.83;16.43;;;3.00;99.90;;;;;;5007074;28;20129;-71
2021/12/14 03:17:24;;;;;;;445.30;18.50;;;3.00;99.90;;;;;;5010575;28;20045;-69
2021/12/14 03:19:59;;;;;;;47.30;7.75;;;3.00;99.90;;;;;;5011006;28;20076;-72
2021/12/14 03:22:33;;;;;;;355.02;18.80;;;3.00;99.90;;;;;;5011590;28;20034;-68
2021/12/14 03:24:59;;;;;;;366.13;18.25;;;3.00;99.90;;;;;;5010248;28;20028;-70
2021/12/14 03:27:26;;;;;;;164.75;9.88;;;2.90;99.90;;;;;;5009742;28;20053;-66
2021/12/14 03:29:52;;;;;;;123.72;9.73;;;3.00;99.90;;;;;;5011393;28;20030;-67
2021/12/14 03:32:18;;;;;;;438.55;18.80;;;2.90;99.90;;;;;;5010684;28;20526;-67
2021/12/14 03:34:45;;;;;;;553.47;23.02;;;2.90;99.90;;;;;;5011379;28;20030;-67
2021/12/14 03:37:23;;;;;;;432.88;19.70;;;3.00;99.90;;;;;;5011665;28;20121;-69
2021/12/14 03:39:52;;;;;;;335.80;17.27;;;2.90;99.90;;;;;;5008412;28;20033;-68
2021/12/14 03:42:34;;;;;;;470.77;21.17;;;2.90;99.90;;;;;;5011254;28;20049;-67
2021/12/14 03:45:01;;;;;;;153.25;11.35;;;2.80;99.90;;;;;;5011022;28;20026;-67
2021/12/14 03:47:30;;;;;;;167.55;10.55;;;2.80;99.90;;;;;;5011498;28;20058;-70
2021/12/14 03:49:59;;;;;;;425.23;21.27;;;2.80;99.90;;;;;;5009704;28;20034;-67
2021/12/14 03:52:31;;;;;;;199.63;12.02;;;2.90;99.90;;;;;;5010110;28;20490;-68
2021/12/14 03:55:02;;;;;;;137.13;10.32;;;2.90;99.90;;;;;;5009294;28;20180;-68
2021/12/14 03:57:28;;;;;;;280.60;14.38;;;2.90;99.90;;;;;;5007068;28;20038;-69
2021/12/14 03:59:54;;;;;;;360.55;16.65;;;2.80;99.90;;;;;;5011290;28;20034;-68
2021/12/14 04:02:21;;;;;;;391.92;17.50;;;2.80;99.90;;;;;;5009176;28;20041;-68
2021/12/14 04:04:53;;;;;;;517.15;22.10;;;2.80;99.90;;;;;;5009974;28;20037;-68
2021/12/14 04:07:20;;;;;;;248.68;12.52;;;2.80;99.90;;;;;;5011382;28;20227;-69
2021/12/14 04:09:47;;;;;;;545.45;23.50;;;2.80;99.90;;;;;;5010418;28;20030;-67
2021/12/14 04:12:17;;;;;;;456.48;21.35;;;2.80;99.90;;;;;;5005538;28;20034;-69
2021/12/14 04:14:52;;;;;;;450.85;20.38;;;2.80;99.90;;;;;;5018074;28;20053;-74
2021/12/14 04:17:21;;;;;;;439.17;20.10;;;2.70;99.90;;;;;;4997722;28;20030;-72
2021/12/14 04:19:47;;;;;;;366.27;17.50;;;2.70;99.90;;;;;;5008052;28;20030;-70
2021/12/14 04:22:22;;;;;;;434.42;19.55;;;2.70;99.90;;;;;;5010372;28;20355;-67
2021/12/14 04:24:52;;;;;;;391.00;18.40;;;2.70;99.90;;;;;;5007963;28;20034;-67
2021/12/14 04:27:23;;;;;;;;;;;2.60;99.90;;;;;;4994083;28;20485;-70
2021/12/14 04:29:49;;;;;;;268.23;13.07;;;2.60;99.90;;;;;;5019151;28;19917;-71
2021/12/14 04:32:17;;;;;;;391.92;16.20;;;2.60;99.90;;;;;;4992419;28;20068;-69
2021/12/14 04:34:44;;;;;;;417.30;14.73;;;2.70;99.90;;;;;;5009396;28;20029;-76
2021/12/14 04:37:14;;;;;;;189.15;11.27;;;2.70;99.90;;;;;;5010790;28;20359;-68
2021/12/14 04:39:45;;;;;;;279.38;12.13;;;2.70;99.90;;;;;;5013534;28;20501;-75
2021/12/14 04:54:00;;;;;;;459.25;16.88;;;2.70;99.90;;;;;;4996315;28;20052;-71
2021/12/14 04:56:37;;;;;;;285.48;13.23;;;2.70;99.90;;;;;;5003674;28;20049;-70
2021/12/14 04:59:11;;;;;;;252.38;12.48;;;2.70;99.90;;;;;;5012015;28;20037;-69
2021/12/14 05:01:40;;;;;;;494.67;17.20;;;2.60;99.90;;;;;;5020587;28;20029;-72
2021/12/14 05:04:10;;;;;;;238.55;13.13;;;2.60;99.90;;;;;;5024256;28;20057;-67
2021/12/14 05:06:53;;;;;;;481.73;19.17;;;2.70;99.90;;;;;;5009491;28;20034;-66
2021/12/14 05:09:29;;;;;;;200.98;11.75;;;2.70;99.90;;;;;;5009895;28;20034;-69
2021/12/14 05:12:04;;;;;;;478.58;19.90;;;2.70;99.90;;;;;;5003152;28;20025;-66
2021/12/14 05:14:32;;;;;;;537.88;20.92;;;2.60;99.90;;;;;;5006630;28;20203;-66
2021/12/14 05:17:03;;;;;;;600.60;24.42;;;2.60;99.90;;;;;;5008257;28;20041;-66
2021/12/14 05:19:36;;;;;;;388.58;15.23;;;2.50;99.90;;;;;;5015900;28;20030;-66
2021/12/14 05:22:12;;;;;;;479.48;21.08;;;2.50;99.90;;;;;;5004479;28;20049;-65
2021/12/14 05:24:43;;;;;;;374.88;14.98;;;2.60;99.90;;;;;;5013091;28;20099;-70
2021/12/14 05:27:11;;;;;;;235.70;13.23;;;2.50;99.90;;;;;;5005254;28;20095;-69
2021/12/14 05:29:40;;;;;;;401.98;17.50;;;2.50;99.90;;;;;;5012943;28;20049;-68
2021/12/14 05:32:07;;;;;;;409.23;17.38;;;2.50;99.90;;;;;;5007522;28;20906;-68
2021/12/14 05:34:33;;;;;;;568.25;22.25;;;2.60;99.90;;;;;;5009377;28;20037;-66
2021/12/14 05:37:00;;;;;;;322.67;17.65;;;2.40;99.90;;;;;;5013231;28;20533;-68
2021/12/14 05:45:05;;;;;;;172.70;9.43;;;2.50;99.90;;;;;;4997658;28;20030;-66
2021/12/14 05:47:30;;;;;;;374.92;17.25;;;2.50;99.90;;;;;;5009115;28;20273;-70
2021/12/14 05:49:56;;;;;;;506.85;18.48;;;2.60;99.90;;;;;;5006053;28;20026;-74
2021/12/14 05:52:26;;;;;;;317.08;15.13;;;2.50;99.90;;;;;;4998843;28;20045;-73
2021/12/14 05:54:55;;;;;;;218.40;11.90;;;2.50;99.90;;;;;;5009794;28;20486;-73
2021/12/14 05:57:23;;;;;;;472.33;20.92;;;2.40;99.90;;;;;;5012740;28;20089;-73
2021/12/14 05:59:50;;;;;;;465.13;19.65;;;2.40;99.90;;;;;;5008536;28;20040;-76
2021/12/14 06:02:15;;;;;;;210.10;11.40;;;2.40;99.90;;;;;;5009109;28;20478;-73
2021/12/14 06:04:45;;;;;;;141.68;9.93;;;2.50;99.90;;;;;;5007210;28;20057;-73
2021/12/14 06:07:11;;;;;;;116.00;9.45;;;2.50;99.90;;;;;;5010363;28;20121;-72
2021/12/14 06:09:42;;;;;;;191.63;10.85;;;2.50;99.90;;;;;;5016784;28;20045;-73
2021/12/14 06:12:16;;;;;;;70.63;8.45;;;2.60;99.90;;;;;;5006083;28;20030;-75
2021/12/14 06:14:51;;;;;;;168.43;11.00;;;2.60;99.90;;;;;;5005399;28;20556;-73
2021/12/14 06:17:25;;;;;;;382.55;14.80;;;2.50;99.90;;;;;;5005880;28;20467;-75
2021/12/14 06:20:00;;;;;;;53.80;7.55;;;2.50;99.90;;;;;;5001708;28;20497;-74
2021/12/14 06:22:26;;;;;;;23.58;6.43;;;2.40;99.90;;;;;;5003198;28;20103;-77
2021/12/14 06:24:59;;;;;;;315.92;16.08;;;2.40;99.90;;;;;;5018279;28;20486;-78
2021/12/14 06:27:27;;;;;;;73.30;9.00;;;2.50;99.90;;;;;;4994568;28;20060;-73
2021/12/14 06:29:59;;;;;;;289.10;11.90;;;2.50;99.90;;;;;;4996155;28;20105;-73
2021/12/14 06:32:35;;;;;;;344.02;16.63;;;2.50;99.90;;;;;;5007154;28;20489;-73
2021/12/14 06:35:27;;;;;;;358.00;16.15;;;2.40;99.90;;;;;;4990679;28;20497;-75
2021/12/14 06:41:10;;;;;;;177.63;10.77;;;2.40;99.90;;;;;;5005136;28;20052;-73
2021/12/14 06:43:49;;;;;;;184.45;10.27;;;2.30;99.90;;;;;;5006132;28;20077;-73
2021/12/14 06:46:21;;;;;;;68.85;7.40;;;2.30;99.90;;;;;;5006352;28;20033;-74
2021/12/14 06:48:51;;;;;;;187.05;11.88;;;2.30;99.90;;;;;;5009953;28;20471;-76
2021/12/14 06:51:20;;;;;;;326.42;12.43;;;2.40;99.90;;;;;;5004666;28;20485;-73
2021/12/14 06:53:49;;;;;;;440.85;17.48;;;2.30;99.90;;;;;;4997728;28;20637;-74
2021/12/14 06:56:16;;;;;;;205.95;11.82;;;2.20;99.90;;;;;;5007466;28;20120;-73
2021/12/14 06:58:58;;;;;;;132.07;8.18;;;2.10;99.90;;;;;;5009523;28;20375;-74
2021/12/14 07:01:26;;;;;;;135.13;8.57;;;2.20;99.90;;;;;;5011326;28;20064;-73
2021/12/14 07:04:03;;;;;;;238.60;9.85;;;2.10;99.90;;;;;;5012059;28;20037;-72
2021/12/14 07:06:34;;;;;;;98.65;7.53;;;2.20;99.90;;;;;;5010338;28;20398;-73
2021/12/14 07:09:21;;;;;;;299.25;12.30;;;2.20;99.90;;;;;;5004626;28;20034;-73
2021/12/14 07:12:03;;;;;;;314.55;13.48;;;2.20;99.90;;;;;;5008730;28;20470;-76
2021/12/14 07:14:32;;;;;;;200.75;11.02;;;2.20;99.90;;;;;;5010180;28;20710;-73
2021/12/14 07:17:08;;;;;;;233.88;10.70;;;2.20;99.90;;;;;;5013900;28;20039;-73
2021/12/14 07:19:55;;;;;;;274.20;14.15;;;2.20;99.90;;;;;;5042717;28;20076;-73
2021/12/14 07:22:28;;;;;;;101.28;7.25;;;2.20;99.90;;;;;;5017818;28;20041;-72
2021/12/14 07:25:00;;;;;;;94.70;6.82;;;2.10;99.90;;;;;;5014799;28;20089;-73
2021/12/14 07:27:29;;;;;;;204.52;10.27;;;2.10;99.90;;;;;;5008778;28;20153;-74
2021/12/14 07:30:11;;;;;;;206.55;9.52;;;2.10;99.90;;;;;;5010171;28;20044;-73
2021/12/14 07:32:50;;;;;;;197.30;9.57;;;2.20;99.90;;;;;;5009957;28;20038;-73
2021/12/14 07:35:27;;;;;;;171.13;8.95;;;2.20;99.90;;;;;;5001200;28;20056;-73
2021/12/14 07:37:58;;;;;;;56.83;10.68;;;2.10;99.90;;;;;;5016458;28;20053;-73
2021/12/14 07:40:32;;;;;;;436.52;16.95;;;2.10;99.90;;;;;;4993330;28;20057;-71
2021/12/14 07:43:18;;;;;;;324.83;14.07;;;2.10;99.90;;;;;;5009881;28;20045;-70
2021/12/14 07:45:46;;;;;;;328.58;16.10;;;2.10;99.90;;;;;;5011767;28;20478;-71
2021/12/14 07:48:12;;;;;;;76.18;8.38;;;2.00;99.90;;;;;;5009261;28;20026;-71
2021/12/14 07:50:52;;;;;;;141.68;8.52;;;2.00;99.90;;;;;;5012317;28;20038;-72
2021/12/14 07:53:41;;;;;;;188.13;9.38;;;2.00;99.90;;;;;;5015324;28;20473;-70
2021/12/14 07:56:43;;;;;;;64.80;6.22;;;2.10;99.90;;;;;;5025231;28;20029;-72
2021/12/14 07:59:18;;;;;;;25.83;5.72;;;2.00;99.90;;;;;;5001364;28;20054;-74
2021/12/14 08:01:46;;;;;;;161.73;9.18;;;2.10;99.90;;;;;;5009712;28;20557;-74
2021/12/14 08:04:12;;;;;;;24.50;5.65;;;2.20;99.90;;;;;;5009393;28;20175;-73
2021/12/14 08:06:50;;;;;;;104.80;8.02;;;2.20;99.90;;;;;;5006130;28;20064;-73
2021/12/14 08:09:34;;;;;;;135.07;7.90;;;2.20;99.90;;;;;;5011712;28;20434;-74
2021/12/14 08:12:02;;;;;;;30.30;6.78;;;2.30;99.90;;;;;;5011887;28;20041;-74
2021/12/14 08:14:29;;;;;;;91.28;16.77;;;2.40;99.90;;;;;;5011685;28;20037;-71
2021/12/14 08:16:59;;;;;;;74.47;19.95;;;2.50;99.90;;;;;;5010641;28;20026;-75
2021/12/14 08:19:30;;;;;;;85.80;15.30;;;2.50;99.90;;;;;;5008956;28;20454;-71
2021/12/14 08:21:56;;;;;;;62.97;15.73;;;2.50;99.90;;;;;;5006637;28;20041;-73
2021/12/14 08:24:22;;;;;;;100.90;27.15;;;2.50;99.90;;;;;;5007714;28;20034;-70
2021/12/14 08:26:55;;;;;;;51.67;19.17;;;2.70;99.90;;;;;;5012894;28;20057;-71
2021/12/14 08:29:30;;;;;;;56.08;8.40;;;2.70;99.90;;;;;;5026846;28;20048;-69
2021/12/14 08:32:12;;;;;;;42.92;7.47;;;2.70;99.90;;;;;;5010166;28;20486;-72
2021/12/14 08:34:47;;;;;;;167.15;10.27;;;2.70;99.90;;;;;;5011025;28;20502;-71
2021/12/14 08:37:42;;;;;;;106.55;8.70;;;2.70;99.90;;;;;;5010754;28;20073;-68
2021/12/14 08:40:23;;;;;;;37.67;6.68;;;2.60;99.90;;;;;;5009563;28;20569;-70
2021/12/14 08:43:03;;;;;;;66.53;7.25;;;2.50;99.90;;;;;;5010546;28;20033;-70
2021/12/14 08:45:39;;;;;;;105.90;8.02;;;2.60;99.90;;;;;;5001718;28;20482;-71
2021/12/14 08:48:09;;;;;;;288.58;12.70;;;2.60;99.90;;;;;;5010075;28;20025;-70
2021/12/14 08:50:40;;;;;;;58.75;6.80;;;2.60;99.90;;;;;;5010134;28;20471;-70
2021/12/14 08:53:08;;;;;;;27.17;7.00;;;2.60;99.90;;;;;;5009737;28;20532;-71
2021/12/14 08:55:36;;;;;;;22.92;8.10;;;2.60;99.90;;;;;;5014819;28;20029;-68
2021/12/14 08:58:03;;;;;;;77.25;9.43;;;2.70;99.90;;;;;;5017708;28;20483;-70
2021/12/14 09:00:40;;;;;;;75.90;7.57;;;2.70;99.90;;;;;;5010259;28;20030;-70
2021/12/14 09:03:09;;;;;;;110.07;8.10;;;2.80;99.90;;;;;;5008185;28;20040;-72
2021/12/14 09:05:44;;;;;;;22.73;6.88;;;2.90;99.90;;;;;;5010200;28;20073;-71
2021/12/14 09:08:11;;;;;;;32.58;8.00;;;3.00;99.90;;;;;;5009600;28;20042;-71
2021/12/14 09:10:38;;;;;;;35.80;8.90;;;3.10;99.90;;;;;;5007660;28;20040;-71
2021/12/14 09:13:08;;;;;;;61.65;10.50;;;3.20;99.90;;;;;;5023402;28;20029;-71
2021/12/14 09:15:43;;;;;;;22.35;7.60;;;3.30;99.90;;;;;;5025472;28;20052;-71
2021/12/14 09:18:11;;;;;;;30.30;11.57;;;3.40;99.90;;;;;;5018467;28;20037;-70
2021/12/14 09:20:47;;;;;;;17.92;5.10;;;3.50;99.90;;;;;;5028677;28;20119;-71
2021/12/14 09:23:19;;;;;;;103.70;8.60;;;3.40;99.90;;;;;;5020418;28;20037;-68
2021/12/14 09:25:48;;;;;;;209.30;14.38;;;3.40;99.90;;;;;;5022344;28;20037;-71
2021/12/14 09:28:17;;;;;;;201.50;12.52;;;3.40;99.90;;;;;;5025518;28;20076;-70
2021/12/14 09:30:48;;;;;;;191.82;13.85;;;3.30;99.90;;;;;;5010666;28;20076;-70
2021/12/14 09:33:16;;;;;;;199.35;13.63;;;3.20;99.90;;;;;;5008658;28;20041;-70
2021/12/14 09:35:45;;;;;;;128.07;11.93;;;3.30;99.90;;;;;;5000898;28;20053;-71
2021/12/14 09:38:17;;;;;;;250.07;15.80;;;3.30;99.90;;;;;;5013364;28;20042;-71
2021/12/14 09:40:53;;;;;;;171.13;12.70;;;3.20;99.90;;;;;;5008044;28;20730;-70
2021/12/14 09:43:20;;;;;;;27.58;8.43;;;3.30;99.90;;;;;;5008753;28;20026;-71
2021/12/14 09:45:52;;;;;;;27.88;7.95;;;3.30;99.90;;;;;;5029686;28;20041;-72
2021/12/14 09:48:40;;;;;;;31.40;8.27;;;3.30;99.90;;;;;;5015296;28;20049;-72
2021/12/14 09:51:11;;;;;;;23.88;7.40;;;3.50;99.90;;;;;;5008682;28;20052;-73
2021/12/14 09:53:41;;;;;;;25.60;7.63;;;3.50;99.90;;;;;;5009891;28;20502;-73
2021/12/14 09:56:09;;;;;;;23.92;8.10;;;3.50;99.90;;;;;;5012432;28;20027;-72
2021/12/14 09:58:41;;;;;;;26.17;9.52;;;3.60;99.90;;;;;;5010423;28;20046;-71
2021/12/14 10:01:10;;;;;;;23.50;8.05;;;3.50;99.90;;;;;;5008686;28;20100;-71
2021/12/14 10:03:37;;;;;;;22.15;7.22;;;3.60;99.90;;;;;;5013362;28;20074;-71
2021/12/14 10:06:07;;;;;;;22.77;7.93;;;3.60;99.90;;;;;;5029211;28;20040;-71
2021/12/14 10:08:38;;;;;;;25.30;9.13;;;3.60;99.90;;;;;;5010530;28;20033;-71
2021/12/14 10:11:09;;;;;;;27.80;9.73;;;3.70;99.90;;;;;;5021299;28;20069;-72
2021/12/14 10:13:38;;;;;;;41.70;11.55;;;3.70;99.90;;;;;;5008924;28;20038;-71
2021/12/14 10:16:07;;;;;;;37.53;12.68;;;3.80;99.90;;;;;;5008393;28;20038;-71
2021/12/14 10:18:40;;;;;;;23.30;9.30;;;3.90;99.90;;;;;;5023056;28;20500;-71
2021/12/14 10:21:20;;;;;;;24.15;9.30;;;3.90;99.90;;;;;;5008977;28;20036;-71
2021/12/14 10:23:48;;;;;;;25.13;8.35;;;3.90;99.90;;;;;;5005907;28;20116;-73
2021/12/14 10:26:16;;;;;;;29.90;9.82;;;3.90;99.90;;;;;;5013919;28;20037;-73
2021/12/14 10:28:48;;;;;;;32.50;9.10;;;3.90;99.90;;;;;;5013199;28;20509;-71
2021/12/14 10:31:29;;;;;;;24.08;8.98;;;3.90;99.90;;;;;;5008868;28;20033;-72
2021/12/14 10:33:58;;;;;;;24.77;9.02;;;3.80;99.90;;;;;;5004661;28;20033;-72
2021/12/14 10:36:40;;;;;;;22.08;7.55;;;3.80;99.90;;;;;;5007394;28;20093;-73
2021/12/14 10:44:27;;;;;;;21.95;7.05;;;4.00;99.90;;;;;;5021033;28;20149;-71
2021/12/14 10:46:55;;;;;;;20.45;6.53;;;4.10;99.90;;;;;;5013898;28;20025;-71
2021/12/14 10:49:24;;;;;;;18.83;6.75;;;4.10;99.90;;;;;;5008334;28;20565;-75
2021/12/14 10:51:55;;;;;;;17.92;6.03;;;4.20;99.90;;;;;;5017481;28;20029;-71
2021/12/14 10:54:21;;;;;;;19.52;7.40;;;4.20;99.90;;;;;;5024891;28;20099;-71
2021/12/14 10:56:57;;;;;;;18.27;7.63;;;4.20;99.90;;;;;;5020843;28;20040;-71
2021/12/14 10:59:28;;;;;;;19.70;6.63;;;4.30;99.90;;;;;;5005429;28;20057;-68
2021/12/14 11:01:54;;;;;;;20.73;7.40;;;4.30;99.90;;;;;;5009519;28;20038;-71
2021/12/14 11:04:39;;;;;;;23.17;8.40;;;4.40;99.90;;;;;;5002543;28;20068;-70
2021/12/14 11:07:19;;;;;;;25.23;8.63;;;4.40;99.90;;;;;;5010387;28;20029;-75
2021/12/14 11:09:47;;;;;;;21.58;7.20;;;4.50;99.90;;;;;;5008681;28;20026;-71
2021/12/14 11:12:18;;;;;;;20.77;6.80;;;4.40;99.90;;;;;;5007501;28;20033;-70
2021/12/14 11:14:45;;;;;;;30.92;7.30;;;4.20;99.90;;;;;;5008678;28;20093;-71
2021/12/14 11:20:15;;;;;;;28.10;7.40;;;4.10;99.90;;;;;;5008801;28;20060;-70
2021/12/14 11:22:47;;;;;;;22.30;8.52;;;4.00;99.90;;;;;;5038301;28;20046;-70
2021/12/14 11:25:20;;;;;;;26.98;9.65;;;4.10;99.90;;;;;;5007004;28;20030;-69
2021/12/14 11:27:58;;;;;;;31.45;10.50;;;4.00;99.90;;;;;;5017424;28;20042;-73
2021/12/14 11:30:35;;;;;;;30.83;10.32;;;4.10;99.90;;;;;;4992496;28;20023;-72
2021/12/14 11:33:18;;;;;;;29.30;9.80;;;4.10;99.90;;;;;;4995745;28;20045;-73
2021/12/14 11:35:50;;;;;;;29.52;10.18;;;4.20;99.90;;;;;;5007083;28;20120;-73
2021/12/14 11:38:27;;;;;;;36.50;9.18;;;4.10;99.90;;;;;;5015738;28;20036;-72
2021/12/14 11:40:53;;;;;;;26.35;8.95;;;4.20;99.90;;;;;;5011176;28;20036;-72
2021/12/14 11:43:23;;;;;;;22.90;8.90;;;4.30;99.90;;;;;;5011022;28;20554;-72
2021/12/14 11:45:50;;;;;;;45.92;9.55;;;4.30;99.90;;;;;;5011853;28;20033;-72
2021/12/14 11:48:34;;;;;;;36.65;10.18;;;4.30;99.90;;;;;;5010878;28;20563;-72
2021/12/14 11:51:04;;;;;;;29.35;9.68;;;4.30;99.90;;;;;;5012544;28;20422;-70
2021/12/14 11:53:30;;;;;;;35.40;11.32;;;4.30;99.90;;;;;;5011310;28;20132;-71
2021/12/14 11:56:04;;;;;;;39.17;10.50;;;4.30;99.90;;;;;;5011108;28;20128;-74
2021/12/14 11:58:37;;;;;;;38.63;11.13;;;4.30;99.90;;;;;;5009635;28;20050;-73
2021/12/14 12:01:16;;;;;;;42.70;11.30;;;4.30;99.90;;;;;;5008197;28;20056;-72
2021/12/14 12:04:00;;;;;;;36.92;12.45;;;4.30;99.90;;;;;;5019035;28;20037;-73
2021/12/14 12:09:32;;;;;;;34.20;12.38;;;4.50;99.90;;;;;;5011052;28;20026;-74
2021/12/14 12:12:04;;;;;;;37.63;12.57;;;4.60;99.90;;;;;;4997805;28;20034;-72
2021/12/14 12:14:45;;;;;;;36.85;11.77;;;4.50;99.90;;;;;;5010460;28;20042;-73
2021/12/14 12:17:29;;;;;;;32.30;11.93;;;4.60;99.90;;;;;;5005218;28;20030;-75
2021/12/14 12:20:25;;;;;;;29.55;10.73;;;4.70;99.90;;;;;;5019559;28;20047;-72
2021/12/14 12:23:00;;;;;;;35.38;10.20;;;4.80;99.90;;;;;;5014559;28;20440;-71
2021/12/14 12:25:35;;;;;;;31.27;11.25;;;4.80;99.90;;;;;;5002817;28;20034;-71
2021/12/14 12:28:11;;;;;;;32.30;10.45;;;4.80;99.90;;;;;;5024039;28;20049;-72
2021/12/14 12:30:48;;;;;;;34.55;11.18;;;4.80;99.90;;;;;;5020819;28;20041;-73
2021/12/14 12:33:22;;;;;;;37.33;12.02;;;4.80;99.90;;;;;;5020049;28;20608;-72
2021/12/14 12:36:08;;;;;;;31.20;10.68;;;4.80;99.90;;;;;;5018399;28;20084;-70
2021/12/14 12:38:51;;;;;;;31.25;11.85;;;4.80;99.90;;;;;;5024658;28;20029;-71
2021/12/14 12:41:26;;;;;;;32.67;11.90;;;4.70;99.90;;;;;;5020303;28;20042;-71
2021/12/14 12:44:00;;;;;;;35.70;12.45;;;4.70;99.90;;;;;;5020538;28;20025;-72
2021/12/14 12:46:26;;;;;;;38.25;12.80;;;4.70;99.90;;;;;;5018903;28;20486;-71
2021/12/14 12:48:59;;;;;;;40.80;12.90;;;4.80;99.90;;;;;;5025757;28;20034;-72
2021/12/14 12:51:46;;;;;;;33.97;12.68;;;4.80;99.90;;;;;;5029647;28;20488;-69
2021/12/14 12:54:58;;;;;;;35.55;13.07;;;4.90;99.90;;;;;;5013854;28;20116;-74
2021/12/14 12:57:40;;;;;;;32.95;12.18;;;4.90;99.90;;;;;;4987019;28;20057;-71
2021/12/14 13:00:18;;;;;;;36.33;12.07;;;4.90;99.90;;;;;;5030324;28;20024;-73
2021/12/14 13:03:02;;;;;;;32.53;12.27;;;5.00;99.90;;;;;;5018320;28;20044;-72
2021/12/14 13:05:28;;;;;;;36.88;9.65;;;5.00;99.90;;;;;;5023948;28;20184;-71
2021/12/14 13:08:02;;;;;;;29.60;10.43;;;5.10;99.90;;;;;;5022893;28;20142;-73
2021/12/14 13:10:36;;;;;;;39.83;11.15;;;5.10;99.90;;;;;;5020084;28;20360;-71
2021/12/14 13:13:20;;;;;;;32.22;11.07;;;5.20;99.90;;;;;;5010082;28;20037;-72
2021/12/14 13:16:07;;;;;;;31.52;9.57;;;5.20;99.90;;;;;;5012498;28;20555;-72
2021/12/14 13:18:50;;;;;;;28.55;9.45;;;5.20;99.90;;;;;;5008452;28;20148;-73
2021/12/14 13:21:40;;;;;;;29.83;10.13;;;5.20;99.90;;;;;;5009190;28;20058;-70
2021/12/14 13:24:09;;;;;;;;;;;5.20;99.90;;;;;;4991526;28;20039;-69
2021/12/14 13:26:53;;;;;;;24.15;9.38;;;5.20;99.90;;;;;;5002895;28;19921;-73
2021/12/14 13:29:24;;;;;;;25.20;8.75;;;5.20;99.90;;;;;;5014927;28;20049;-71
2021/12/14 13:31:57;;;;;;;30.70;10.85;;;5.20;99.90;;;;;;5009569;28;20109;-74
2021/12/14 13:34:36;;;;;;;29.85;11.18;;;5.20;99.90;;;;;;4989879;28;20038;-71
2021/12/14 13:37:03;;;;;;;26.00;10.38;;;5.30;99.90;;;;;;5003973;28;20041;-73
2021/12/14 13:39:30;;;;;;;27.08;10.50;;;5.30;99.90;;;;;;5007559;28;20642;-72
2021/12/14 13:41:58;;;;;;;30.10;10.55;;;5.30;99.90;;;;;;5009668;28;20061;-71
2021/12/14 13:44:34;;;;;;;33.53;11.55;;;5.30;99.90;;;;;;5022011;28;20041;-70
2021/12/14 13:47:03;;;;;;;33.42;11.15;;;5.30;99.90;;;;;;4990683;28;20121;-71
2021/12/14 13:49:28;;;;;;;32.20;11.60;;;5.30;99.90;;;;;;5005307;28;20037;-72